Time;durP1;ratioP1;P1;durP2;ratioP2;P2;SDS_P1;SDS_P2;PMS_P1;PMS_P2;Temp;Humidity;BMP_temperature;BMP_pressure;BME280_temperature;BME280_humidity;BME280_pressure;Samples;Min_cycle;Max_cycle;Signal;HPM_P1;HPM_P2
2023/05/27 00:04:54;;;;;;;7.13;2.72;;;18.00;58.70;;;;;;13016483;22;20034;-60
2023/05/27 00:09:55;;;;;;;5.57;2.50;;;18.00;58.80;;;;;;13016663;22;19999;-61
2023/05/27 00:14:55;;;;;;;5.25;2.88;;;18.00;58.80;;;;;;13016596;22;20027;-62
2023/05/27 00:19:56;;;;;;;8.38;3.38;;;18.00;58.70;;;;;;13043288;22;20383;-61
2023/05/27 00:24:57;;;;;;;5.53;2.40;;;18.00;58.80;;;;;;13016118;22;20421;-60
2023/05/27 00:29:58;;;;;;;7.90;2.42;;;18.00;58.80;;;;;;13015980;22;19996;-59
2023/05/27 00:34:58;;;;;;;4.68;2.00;;;18.00;58.80;;;;;;13015443;22;20717;-61
2023/05/27 00:39:59;;;;;;;4.57;2.20;;;17.90;58.70;;;;;;13042910;22;20053;-60
2023/05/27 00:45:00;;;;;;;4.97;2.22;;;17.90;58.70;;;;;;13042010;22;20007;-61
2023/05/27 00:50:03;;;;;;;4.57;2.72;;;17.90;58.80;;;;;;13042738;22;20002;-59
2023/05/27 00:55:05;;;;;;;5.13;2.47;;;17.90;58.80;;;;;;13015310;22;20014;-60
2023/05/27 01:00:09;;;;;;;4.55;2.13;;;17.90;58.70;;;;;;13015362;22;20310;-61
2023/05/27 01:05:14;;;;;;;3.92;2.58;;;17.90;58.80;;;;;;13016018;22;19995;-60
2023/05/27 01:10:26;;;;;;;3.85;2.25;;;17.90;58.70;;;;;;12989863;22;19999;-60
2023/05/27 01:15:30;;;;;;;4.60;2.22;;;17.90;58.70;;;;;;13042144;22;20003;-60
2023/05/27 01:20:32;;;;;;;5.03;2.85;;;17.80;58.80;;;;;;13015372;22;20007;-60
2023/05/27 01:25:33;;;;;;;5.65;2.25;;;17.80;58.80;;;;;;13014484;22;20323;-60
2023/05/27 01:30:35;;;;;;;4.30;2.30;;;17.80;58.80;;;;;;13014643;22;20030;-60
2023/05/27 01:35:52;;;;;;;3.47;2.00;;;17.80;59.40;;;;;;13014527;22;20005;-60
2023/05/27 01:40:55;;;;;;;4.28;2.25;;;17.80;58.80;;;;;;12989380;22;20026;-60
2023/05/27 01:45:56;;;;;;;3.75;2.40;;;17.80;58.80;;;;;;13041583;22;20322;-60
2023/05/27 01:50:56;;;;;;;4.30;2.20;;;17.80;58.80;;;;;;13014320;22;19999;-61
2023/05/27 01:55:57;;;;;;;7.82;2.60;;;17.80;58.90;;;;;;13041709;22;20002;-60
2023/05/27 02:00:58;;;;;;;4.72;2.50;;;17.80;59.00;;;;;;13041408;22;20033;-60
2023/05/27 02:05:58;;;;;;;3.72;1.88;;;17.80;58.90;;;;;;13013416;22;20168;-59
2023/05/27 02:10:59;;;;;;;5.50;3.35;;;17.80;58.90;;;;;;13013870;22;20075;-61
2023/05/27 02:16:00;;;;;;;3.92;2.40;;;17.80;58.90;;;;;;13013592;22;19999;-61
2023/05/27 02:21:05;;;;;;;4.40;2.58;;;17.80;58.90;;;;;;13041047;22;20003;-61
2023/05/27 02:26:06;;;;;;;5.53;2.90;;;17.70;58.80;;;;;;12988711;22;20007;-61
2023/05/27 02:31:07;;;;;;;5.38;2.42;;;17.70;58.80;;;;;;13013814;22;20005;-60
2023/05/27 02:36:07;;;;;;;4.85;2.33;;;17.70;58.80;;;;;;12988091;22;20337;-61
2023/05/27 02:41:08;;;;;;;6.28;2.20;;;17.70;58.80;;;;;;13040067;22;20015;-60
2023/05/27 02:46:09;;;;;;;8.63;2.20;;;17.70;58.70;;;;;;13012764;22;20553;-60
2023/05/27 02:51:10;;;;;;;5.43;2.28;;;17.70;58.80;;;;;;13013387;22;19996;-60
2023/05/27 02:56:10;;;;;;;4.63;2.40;;;17.70;58.80;;;;;;13013022;22;20410;-60
2023/05/27 03:01:11;;;;;;;4.38;2.50;;;17.70;58.80;;;;;;13013290;22;20038;-61
2023/05/27 03:06:12;;;;;;;6.03;2.13;;;17.70;58.80;;;;;;13012757;22;20061;-61
2023/05/27 03:11:12;;;;;;;5.35;2.22;;;17.60;58.70;;;;;;13040394;22;19999;-61
2023/05/27 03:16:13;;;;;;;3.95;1.90;;;17.60;58.80;;;;;;13013514;22;20026;-61
2023/05/27 03:21:15;;;;;;;4.85;2.03;;;17.60;58.70;;;;;;13013017;22;20078;-61
2023/05/27 03:26:15;;;;;;;4.75;2.10;;;17.60;58.80;;;;;;13016756;22;20446;-61
2023/05/27 03:31:16;;;;;;;6.53;2.08;;;17.60;58.80;;;;;;13015166;22;19999;-60
2023/05/27 03:36:17;;;;;;;5.13;2.38;;;17.60;58.80;;;;;;12989455;22;20027;-60
2023/05/27 03:41:18;;;;;;;6.72;2.30;;;17.60;58.80;;;;;;13016614;22;20035;-60
2023/05/27 03:46:19;;;;;;;4.85;2.95;;;17.60;58.80;;;;;;13016822;22;20041;-60
2023/05/27 03:51:20;;;;;;;5.10;1.70;;;17.60;58.70;;;;;;13043629;22;19995;-64
2023/05/27 03:56:21;;;;;;;4.30;2.10;;;17.50;58.70;;;;;;12990755;22;19999;-60
2023/05/27 04:01:22;;;;;;;5.00;3.00;;;17.60;58.80;;;;;;13015930;22;20031;-60
2023/05/27 04:06:23;;;;;;;6.03;1.85;;;17.50;58.70;;;;;;12990647;22;19992;-61
2023/05/27 04:11:26;;;;;;;5.90;2.75;;;17.60;58.80;;;;;;13043344;22;20360;-62
2023/05/27 04:16:30;;;;;;;5.18;2.60;;;17.50;58.80;;;;;;13016240;22;20007;-59
2023/05/27 04:21:31;;;;;;;5.28;2.25;;;17.50;58.80;;;;;;13043313;22;20655;-59
2023/05/27 04:26:32;;;;;;;4.85;2.40;;;17.50;58.80;;;;;;13015728;22;20078;-61
2023/05/27 04:31:36;;;;;;;4.72;2.47;;;17.50;58.80;;;;;;13016074;22;19995;-60
2023/05/27 04:36:37;;;;;;;5.55;2.67;;;17.50;58.80;;;;;;13015668;22;19995;-61
2023/05/27 04:41:39;;;;;;;5.30;2.25;;;17.50;58.80;;;;;;13014967;22;20086;-60
2023/05/27 04:46:43;;;;;;;4.55;2.10;;;17.50;58.90;;;;;;13015800;22;19991;-60
2023/05/27 04:51:44;;;;;;;4.47;2.08;;;17.50;58.90;;;;;;13043698;22;20018;-62
2023/05/27 04:56:45;;;;;;;5.50;2.42;;;17.50;59.00;;;;;;13042686;22;20003;-62
2023/05/27 05:01:59;;;;;;;3.88;2.28;;;17.50;59.00;;;;;;13042512;22;20094;-61
2023/05/27 05:06:59;;;;;;;7.47;3.00;;;17.50;59.10;;;;;;13014505;22;20103;-62
2023/05/27 05:12:03;;;;;;;9.85;3.40;;;17.50;59.10;;;;;;13042727;22;20074;-63
2023/05/27 05:17:04;;;;;;;10.27;2.90;;;17.70;59.70;;;;;;13043041;22;20061;-59
2023/05/27 05:22:05;;;;;;;7.15;3.17;;;17.80;59.90;;;;;;13042413;22;20008;-60
2023/05/27 05:27:07;;;;;;;8.25;2.45;;;17.90;60.40;;;;;;13041858;22;20026;-60
2023/05/27 05:32:10;;;;;;;5.72;1.92;;;17.90;60.30;;;;;;12989260;22;20000;-61
2023/05/27 05:37:11;;;;;;;13.70;3.25;;;17.90;59.90;;;;;;12988972;22;20013;-60
2023/05/27 05:42:12;;;;;;;16.02;3.22;;;17.90;59.90;;;;;;13013535;22;20434;-62
2023/05/27 05:47:13;;;;;;;19.45;4.60;;;17.80;60.00;;;;;;13041625;22;20087;-66
2023/05/27 05:52:13;;;;;;;27.42;5.20;;;17.70;60.20;;;;;;12986782;22;20493;-64
2023/05/27 05:57:14;;;;;;;30.13;6.60;;;17.70;60.70;;;;;;12986984;22;20070;-63
2023/05/27 06:02:15;;;;;;;45.63;7.43;;;17.70;60.60;;;;;;12984854;22;20106;-65
2023/05/27 06:07:15;;;;;;;46.42;7.07;;;17.70;60.60;;;;;;13037903;22;20086;-60
2023/05/27 06:12:16;;;;;;;27.25;5.00;;;17.70;60.40;;;;;;12984324;22;20102;-58
2023/05/27 06:17:17;;;;;;;28.23;5.38;;;17.80;60.60;;;;;;13008779;22;20011;-60
2023/05/27 06:22:17;;;;;;;25.38;7.38;;;17.70;60.40;;;;;;13040662;22;20007;-60
2023/05/27 06:27:18;;;;;;;18.10;5.60;;;17.70;60.40;;;;;;12984786;22;20030;-60
2023/05/27 06:32:19;;;;;;;27.58;5.13;;;17.70;60.60;;;;;;13039193;22;20074;-60
2023/05/27 06:37:19;;;;;;;34.72;4.80;;;17.60;60.70;;;;;;12987116;22;20078;-60
2023/05/27 06:42:22;;;;;;;19.05;4.32;;;17.60;60.60;;;;;;13009971;22;20367;-60
2023/05/27 06:47:23;;;;;;;20.88;5.47;;;17.60;60.60;;;;;;13037427;22;19992;-61
2023/05/27 06:52:24;;;;;;;17.95;4.80;;;17.60;60.60;;;;;;13010304;22;20074;-60
2023/05/27 06:57:24;;;;;;;19.40;5.28;;;17.60;60.60;;;;;;13010440;22;19999;-60
2023/05/27 07:02:25;;;;;;;18.23;4.78;;;17.70;60.70;;;;;;13010913;22;20003;-60
2023/05/27 07:07:26;;;;;;;19.85;5.15;;;17.70;60.60;;;;;;13037600;22;19991;-61
2023/05/27 07:12:26;;;;;;;18.92;3.97;;;17.70;60.40;;;;;;13036499;22;20018;-60
2023/05/27 07:17:27;;;;;;;17.75;4.78;;;17.70;60.30;;;;;;13008530;22;20434;-61
2023/05/27 07:22:28;;;;;;;12.65;4.20;;;17.80;60.30;;;;;;13007263;22;20008;-60
2023/05/27 07:27:29;;;;;;;11.07;4.00;;;17.80;60.30;;;;;;13034771;22;20126;-60
2023/05/27 07:32:30;;;;;;;15.50;4.55;;;17.80;60.30;;;;;;13038357;22;20077;-60
2023/05/27 07:37:31;;;;;;;14.55;5.05;;;17.80;60.30;;;;;;13008658;22;20026;-60
2023/05/27 07:42:32;;;;;;;8.27;3.88;;;17.80;60.40;;;;;;13009725;22;20011;-61
2023/05/27 07:47:32;;;;;;;11.23;4.03;;;17.80;60.30;;;;;;13036310;22;20012;-60
2023/05/27 07:52:33;;;;;;;10.32;3.95;;;17.90;60.40;;;;;;13010119;22;20424;-59
2023/05/27 07:57:34;;;;;;;14.80;3.55;;;17.90;60.40;;;;;;13010128;22;20000;-61
2023/05/27 08:02:35;;;;;;;11.95;3.80;;;17.90;60.50;;;;;;12983134;22;20094;-61
2023/05/27 08:07:36;;;;;;;10.23;4.25;;;17.90;60.50;;;;;;13043590;22;20577;-60
2023/05/27 08:12:36;;;;;;;7.93;3.35;;;17.90;60.50;;;;;;13043026;22;20003;-59
2023/05/27 08:17:37;;;;;;;12.77;3.65;;;18.00;60.50;;;;;;13014780;22;20042;-59
2023/05/27 08:22:38;;;;;;;15.25;4.05;;;18.00;60.50;;;;;;13043360;22;20149;-62
2023/05/27 08:27:53;;;;;;;11.52;3.60;;;18.10;60.80;;;;;;12990447;22;19996;-59
2023/05/27 08:32:53;;;;;;;12.88;3.90;;;18.00;60.90;;;;;;13016099;22;20445;-60
2023/05/27 08:37:54;;;;;;;9.63;4.22;;;18.00;61.00;;;;;;13014129;22;19999;-59
2023/05/27 08:42:55;;;;;;;10.20;3.67;;;18.10;61.00;;;;;;13038333;22;20031;-59
2023/05/27 08:47:57;;;;;;;14.77;3.97;;;18.10;61.00;;;;;;13037877;22;20030;-58
2023/05/27 08:52:58;;;;;;;11.20;3.70;;;18.10;61.00;;;;;;13010286;22;20004;-57
2023/05/27 08:58:01;;;;;;;12.75;4.10;;;18.00;60.90;;;;;;13011067;22;19995;-58
2023/05/27 09:03:02;;;;;;;11.13;3.92;;;18.10;61.00;;;;;;13012058;22;20008;-57
2023/05/27 09:08:03;;;;;;;7.93;3.53;;;18.10;61.10;;;;;;13011614;22;20018;-58
2023/05/27 09:13:03;;;;;;;15.25;3.83;;;18.10;61.00;;;;;;13039264;22;20003;-58
2023/05/27 09:18:05;;;;;;;8.20;3.63;;;18.10;61.20;;;;;;13039003;22;20641;-58
2023/05/27 09:23:06;;;;;;;12.35;3.28;;;18.10;61.00;;;;;;12986920;22;20011;-59
2023/05/27 09:28:08;;;;;;;9.10;3.70;;;18.10;61.00;;;;;;13013352;22;20003;-59
2023/05/27 09:33:08;;;;;;;10.18;3.70;;;18.10;61.10;;;;;;13040282;22;19999;-57
2023/05/27 09:38:09;;;;;;;13.38;3.80;;;18.10;61.10;;;;;;13013493;22;20002;-56
2023/05/27 09:43:15;;;;;;;10.75;4.03;;;18.20;61.10;;;;;;13041388;22;20096;-56
2023/05/27 09:48:18;;;;;;;13.00;3.45;;;18.20;61.10;;;;;;13041134;22;20049;-55
2023/05/27 09:53:23;;;;;;;11.23;4.53;;;18.20;61.10;;;;;;13011227;22;19996;-54
2023/05/27 09:58:25;;;;;;;9.65;4.22;;;18.20;61.50;;;;;;13014110;22;20003;-57
2023/05/27 10:03:27;;;;;;;13.25;4.68;;;18.20;61.30;;;;;;13035231;22;20003;-56
2023/05/27 10:08:28;;;;;;;8.27;3.17;;;18.20;61.20;;;;;;12985647;22;19999;-55
2023/05/27 10:13:30;;;;;;;10.75;4.38;;;18.20;61.20;;;;;;13038128;22;20045;-56
2023/05/27 10:18:30;;;;;;;7.15;2.78;;;18.20;61.30;;;;;;13038343;22;20003;-56
2023/05/27 10:23:31;;;;;;;7.20;3.30;;;18.30;61.30;;;;;;13010378;22;20442;-55
2023/05/27 10:28:37;;;;;;;12.52;4.90;;;18.30;61.20;;;;;;13038607;22;20041;-56
2023/05/27 10:33:49;;;;;;;8.00;3.38;;;18.30;61.30;;;;;;13037827;22;20066;-54
2023/05/27 10:39:17;;;;;;;8.60;3.30;;;18.30;61.30;;;;;;12985373;22;20423;-56
2023/05/27 10:44:37;;;;;;;14.68;3.60;;;18.30;61.30;;;;;;13036849;22;20007;-56
2023/05/27 10:49:46;;;;;;;7.97;3.42;;;18.30;61.20;;;;;;13038818;22;20023;-56
2023/05/27 10:54:48;;;;;;;5.95;3.67;;;18.30;61.20;;;;;;13013736;22;20037;-55
2023/05/27 10:59:55;;;;;;;6.20;3.22;;;18.40;61.30;;;;;;13010630;22;20003;-55
2023/05/27 11:04:56;;;;;;;10.05;3.35;;;18.40;61.20;;;;;;13011292;22;19999;-56
2023/05/27 11:09:57;;;;;;;7.03;3.70;;;18.40;61.20;;;;;;13010477;22;20019;-56
2023/05/27 11:14:57;;;;;;;7.22;2.88;;;18.40;61.10;;;;;;13037399;22;20072;-54
2023/05/27 11:19:58;;;;;;;7.30;3.10;;;18.40;61.20;;;;;;13037173;22;20020;-56
2023/05/27 11:25:01;;;;;;;7.72;3.78;;;18.50;61.20;;;;;;13037927;22;20066;-56
2023/05/27 11:30:09;;;;;;;5.95;3.25;;;18.50;61.10;;;;;;13010401;22;20334;-56
2023/05/27 11:35:17;;;;;;;6.60;3.47;;;18.50;61.30;;;;;;13011933;22;19995;-55
2023/05/27 11:40:18;;;;;;;7.30;3.53;;;18.50;61.20;;;;;;13041018;22;20007;-56
2023/05/27 11:45:21;;;;;;;5.93;2.67;;;18.50;61.10;;;;;;13016541;22;20007;-54
2023/05/27 11:50:22;;;;;;;4.65;2.58;;;18.50;61.10;;;;;;13014182;22;20004;-54
2023/05/27 11:55:24;;;;;;;7.03;3.90;;;18.50;61.10;;;;;;13041369;22;20018;-54
2023/05/27 12:00:24;;;;;;;8.45;3.65;;;18.50;61.00;;;;;;13014459;22;20547;-56
2023/05/27 12:05:25;;;;;;;9.63;3.63;;;18.60;61.10;;;;;;13015601;22;20067;-55
2023/05/27 12:10:26;;;;;;;6.50;3.22;;;18.60;61.00;;;;;;13039296;22;20091;-56
2023/05/27 12:15:27;;;;;;;4.93;2.72;;;18.70;60.80;;;;;;12987875;22;20482;-56
2023/05/27 12:20:28;;;;;;;5.32;3.00;;;18.70;61.10;;;;;;13040799;22;20021;-59
2023/05/27 12:25:29;;;;;;;9.00;3.22;;;18.70;61.60;;;;;;13041393;22;20365;-56
2023/05/27 12:30:30;;;;;;;8.02;3.58;;;18.70;62.00;;;;;;13014884;22;19999;-55
2023/05/27 12:35:30;;;;;;;8.98;3.33;;;18.70;62.20;;;;;;13042093;22;20000;-56
2023/05/27 12:40:32;;;;;;;7.50;3.70;;;18.70;62.50;;;;;;13012720;22;20365;-55
2023/05/27 12:45:33;;;;;;;7.95;3.42;;;18.80;62.30;;;;;;12987159;22;20011;-62
2023/05/27 12:50:33;;;;;;;8.52;3.97;;;18.80;62.90;;;;;;13013480;22;20086;-56
2023/05/27 12:55:35;;;;;;;8.70;3.42;;;18.80;62.30;;;;;;13040629;22;20644;-56
2023/05/27 13:00:36;;;;;;;7.97;3.83;;;18.80;62.20;;;;;;13013175;22;20375;-57
2023/05/27 13:05:36;;;;;;;11.75;3.47;;;18.80;62.30;;;;;;13039378;22;20004;-56
2023/05/27 13:10:37;;;;;;;8.00;4.85;;;18.70;62.10;;;;;;13012392;22;20314;-57
2023/05/27 13:15:38;;;;;;;6.32;3.38;;;18.80;62.00;;;;;;13011506;22;20456;-55
2023/05/27 13:20:39;;;;;;;6.78;3.70;;;18.70;61.80;;;;;;13013729;22;20031;-55
2023/05/27 13:25:40;;;;;;;5.63;3.20;;;18.80;61.70;;;;;;13012706;22;20007;-56
2023/05/27 13:30:40;;;;;;;7.15;3.53;;;18.80;61.50;;;;;;13011897;22;20003;-56
2023/05/27 13:35:41;;;;;;;9.70;4.25;;;18.80;61.50;;;;;;13010575;22;20070;-56
2023/05/27 13:40:42;;;;;;;7.25;3.85;;;18.80;61.40;;;;;;13011373;22;20003;-56
2023/05/27 13:45:42;;;;;;;8.77;4.00;;;18.80;61.20;;;;;;13038127;22;19999;-54
2023/05/27 13:50:43;;;;;;;8.13;3.88;;;18.80;61.30;;;;;;12987942;22;20082;-54
2023/05/27 13:55:45;;;;;;;13.75;4.68;;;18.80;61.20;;;;;;13010091;22;20365;-55
2023/05/27 14:00:46;;;;;;;9.05;4.05;;;18.80;61.10;;;;;;13010468;22;20060;-55
2023/05/27 14:05:46;;;;;;;9.57;3.85;;;18.80;61.00;;;;;;13037322;22;20018;-56
2023/05/27 14:10:47;;;;;;;7.53;4.65;;;18.80;61.10;;;;;;13037556;22;20027;-56
2023/05/27 14:15:48;;;;;;;9.93;3.65;;;18.80;61.10;;;;;;13037850;22;20026;-55
2023/05/27 14:20:49;;;;;;;9.27;4.57;;;18.80;61.00;;;;;;13038023;22;20018;-56
2023/05/27 14:25:49;;;;;;;9.07;4.65;;;18.70;61.00;;;;;;13039535;22;20026;-58
2023/05/27 14:30:50;;;;;;;13.15;4.75;;;18.70;60.90;;;;;;13010859;22;20074;-55
2023/05/27 14:35:51;;;;;;;7.50;3.88;;;18.70;60.90;;;;;;13037481;22;20003;-56
2023/05/27 14:40:51;;;;;;;9.23;4.07;;;18.70;60.80;;;;;;13009507;22;20041;-53
2023/05/27 14:45:52;;;;;;;8.05;3.92;;;18.80;60.80;;;;;;13014138;22;20350;-55
2023/05/27 14:50:53;;;;;;;8.65;5.30;;;18.70;60.60;;;;;;13013225;22;20002;-55
2023/05/27 14:55:55;;;;;;;8.55;3.65;;;18.80;60.60;;;;;;13040471;22;20003;-55
2023/05/27 15:00:56;;;;;;;9.00;3.38;;;18.80;60.50;;;;;;13036748;22;20007;-55
2023/05/27 15:05:58;;;;;;;9.18;4.13;;;18.80;60.40;;;;;;13037088;22;20066;-55
2023/05/27 15:10:58;;;;;;;5.53;3.67;;;18.80;60.50;;;;;;13037275;22;20003;-56
2023/05/27 15:15:59;;;;;;;6.97;4.22;;;18.80;60.50;;;;;;13036822;22;20003;-55
2023/05/27 15:21:00;;;;;;;6.70;4.75;;;18.80;61.10;;;;;;12984408;22;20003;-56
2023/05/27 15:26:01;;;;;;;6.57;4.38;;;18.80;61.20;;;;;;13037559;22;20082;-55
2023/05/27 15:31:02;;;;;;;9.18;3.65;;;18.80;60.80;;;;;;12983975;22;20003;-54
2023/05/27 15:36:03;;;;;;;6.57;4.20;;;18.80;60.70;;;;;;13038728;22;19999;-56
2023/05/27 15:41:04;;;;;;;7.88;4.10;;;18.70;60.60;;;;;;13037055;22;20011;-55
2023/05/27 15:46:05;;;;;;;9.27;4.88;;;18.80;60.60;;;;;;13037155;22;20041;-56
2023/05/27 15:51:06;;;;;;;8.07;3.70;;;18.80;60.40;;;;;;13009660;22;19999;-55
2023/05/27 15:56:07;;;;;;;6.53;4.13;;;18.80;60.50;;;;;;13036947;22;20074;-56
2023/05/27 16:01:08;;;;;;;8.90;5.70;;;18.80;60.50;;;;;;13010035;22;20134;-55
2023/05/27 16:06:08;;;;;;;6.68;4.25;;;18.80;60.40;;;;;;12984202;22;20320;-56
2023/05/27 16:11:09;;;;;;;8.10;3.45;;;18.80;60.50;;;;;;12983950;22;20418;-56
2023/05/27 16:16:10;;;;;;;9.48;4.28;;;18.80;60.50;;;;;;12983719;22;19996;-57
2023/05/27 16:21:11;;;;;;;8.75;3.80;;;18.90;60.60;;;;;;13008936;22;20090;-58
2023/05/27 16:26:12;;;;;;;7.22;3.85;;;18.90;61.20;;;;;;13010970;22;20304;-57
2023/05/27 16:31:13;;;;;;;6.07;3.75;;;19.00;61.30;;;;;;13006107;22;20003;-56
2023/05/27 16:36:14;;;;;;;6.20;4.22;;;19.00;60.30;;;;;;13015722;22;20004;-56
2023/05/27 16:41:15;;;;;;;6.50;3.85;;;18.90;60.30;;;;;;13041933;22;20015;-55
2023/05/27 16:46:16;;;;;;;7.13;4.07;;;18.90;60.30;;;;;;13042848;22;20100;-57
2023/05/27 16:51:17;;;;;;;4.60;3.58;;;18.90;60.50;;;;;;13015618;22;19995;-57
2023/05/27 16:56:18;;;;;;;7.30;3.67;;;18.90;60.70;;;;;;13043064;22;20074;-56
2023/05/27 17:01:18;;;;;;;7.93;3.88;;;18.90;60.60;;;;;;13015508;22;20011;-55
2023/05/27 17:06:19;;;;;;;10.32;4.32;;;18.90;60.30;;;;;;13043233;22;20050;-55
2023/05/27 17:11:20;;;;;;;7.60;4.00;;;18.90;60.50;;;;;;13042540;22;20022;-56
2023/05/27 17:16:21;;;;;;;7.15;4.82;;;18.90;60.60;;;;;;13015049;22;20049;-57
2023/05/27 17:21:22;;;;;;;7.13;3.75;;;18.90;60.60;;;;;;13042892;22;20010;-56
2023/05/27 17:26:23;;;;;;;8.02;3.58;;;18.90;60.40;;;;;;13014981;22;20002;-57
2023/05/27 17:31:23;;;;;;;4.53;3.55;;;18.90;60.80;;;;;;13042224;22;20019;-56
2023/05/27 17:36:24;;;;;;;7.25;3.47;;;18.90;60.90;;;;;;13015099;22;20023;-56
2023/05/27 17:41:26;;;;;;;7.00;3.63;;;18.90;60.90;;;;;;13013836;22;20022;-57
2023/05/27 17:46:27;;;;;;;10.48;5.25;;;18.90;60.80;;;;;;13014761;22;19991;-57
2023/05/27 17:51:28;;;;;;;4.63;3.00;;;18.90;60.90;;;;;;13014629;22;20457;-57
2023/05/27 17:56:28;;;;;;;5.22;3.65;;;18.90;61.00;;;;;;13041513;22;19996;-56
2023/05/27 18:01:31;;;;;;;5.38;3.55;;;18.90;61.00;;;;;;13013904;22;20350;-56
2023/05/27 18:06:32;;;;;;;6.55;3.45;;;18.80;61.20;;;;;;13014466;22;19991;-57
2023/05/27 18:11:32;;;;;;;6.00;3.58;;;18.80;61.30;;;;;;13013393;22;20003;-57
2023/05/27 18:16:33;;;;;;;6.05;3.80;;;18.90;61.40;;;;;;12982122;22;19999;-56
2023/05/27 18:21:34;;;;;;;9.95;4.05;;;18.90;61.20;;;;;;13040683;22;20104;-57
2023/05/27 18:26:35;;;;;;;6.88;3.72;;;18.90;61.30;;;;;;13038673;22;20019;-57
2023/05/27 18:31:35;;;;;;;5.57;3.22;;;18.80;61.40;;;;;;13010187;22;20319;-54
2023/05/27 18:36:36;;;;;;;6.10;2.92;;;18.80;61.30;;;;;;13009908;22;19999;-56
2023/05/27 18:41:37;;;;;;;6.78;4.53;;;18.80;62.00;;;;;;13037601;22;20450;-56
2023/05/27 18:46:38;;;;;;;6.88;3.75;;;18.80;61.40;;;;;;13038401;22;20300;-54
2023/05/27 18:51:39;;;;;;;6.07;3.30;;;18.80;61.60;;;;;;13037609;22;20078;-55
2023/05/27 18:56:39;;;;;;;7.25;3.08;;;18.80;61.60;;;;;;13009810;22;20373;-57
2023/05/27 19:01:41;;;;;;;6.32;3.40;;;18.80;61.70;;;;;;13011960;22;20032;-56
2023/05/27 19:06:41;;;;;;;6.55;3.33;;;18.80;61.80;;;;;;12985825;22;20023;-56
2023/05/27 19:11:42;;;;;;;6.22;3.42;;;18.80;61.80;;;;;;13010351;22;20019;-56
2023/05/27 19:16:43;;;;;;;6.55;3.53;;;18.80;61.90;;;;;;13011138;22;19995;-56
2023/05/27 19:21:45;;;;;;;4.65;2.88;;;18.80;61.90;;;;;;13010410;22;20426;-55
2023/05/27 19:26:46;;;;;;;5.65;2.97;;;18.80;62.00;;;;;;13010842;22;20019;-57
2023/05/27 19:31:46;;;;;;;6.00;3.20;;;18.80;62.10;;;;;;13011086;22;19995;-56
2023/05/27 19:36:47;;;;;;;6.55;4.13;;;18.70;62.10;;;;;;13037963;22;20135;-58
2023/05/27 19:41:47;;;;;;;4.60;2.63;;;18.70;62.10;;;;;;13009656;22;20739;-56
2023/05/27 19:46:48;;;;;;;5.30;3.38;;;18.70;62.20;;;;;;13035338;22;19999;-55
2023/05/27 19:51:49;;;;;;;5.35;2.90;;;18.70;62.20;;;;;;13011655;22;20399;-57
2023/05/27 19:56:50;;;;;;;5.13;2.70;;;18.70;62.20;;;;;;13012697;22;19999;-56
2023/05/27 20:01:50;;;;;;;4.93;2.95;;;18.70;62.30;;;;;;13013046;22;20025;-56
2023/05/27 20:06:51;;;;;;;4.90;3.05;;;18.70;62.40;;;;;;12991103;22;19991;-57
2023/05/27 20:11:55;;;;;;;5.18;3.10;;;18.70;62.30;;;;;;13042861;22;20000;-57
2023/05/27 20:16:55;;;;;;;6.93;3.42;;;18.70;62.40;;;;;;13013314;22;19999;-56
2023/05/27 20:21:56;;;;;;;5.55;3.30;;;18.70;62.50;;;;;;13014707;22;20087;-55
2023/05/27 20:26:57;;;;;;;6.80;3.42;;;18.60;62.50;;;;;;13041115;22;20041;-58
2023/05/27 20:31:57;;;;;;;5.57;3.40;;;18.60;62.60;;;;;;12988324;22;20041;-56
2023/05/27 20:36:58;;;;;;;7.25;4.10;;;18.60;62.60;;;;;;13041382;22;20004;-56
2023/05/27 20:41:59;;;;;;;5.97;3.58;;;18.70;62.60;;;;;;13041834;22;20315;-57
2023/05/27 20:47:04;;;;;;;7.28;3.80;;;18.60;62.60;;;;;;13015635;22;20422;-55
2023/05/27 20:52:05;;;;;;;6.18;3.55;;;18.70;62.70;;;;;;13042830;22;20230;-56
2023/05/27 20:57:06;;;;;;;6.20;3.70;;;18.60;62.70;;;;;;12989777;22;20368;-56
2023/05/27 21:02:12;;;;;;;6.95;3.25;;;18.60;62.70;;;;;;12990026;22;20034;-57
2023/05/27 21:07:12;;;;;;;5.85;3.47;;;18.60;62.70;;;;;;13042817;22;19996;-55
2023/05/27 21:12:14;;;;;;;7.35;4.10;;;18.60;62.70;;;;;;13014866;22;20120;-56
2023/05/27 21:17:14;;;;;;;6.43;3.08;;;18.60;62.70;;;;;;12989814;22;20492;-56
2023/05/27 21:22:15;;;;;;;6.57;3.97;;;18.60;62.70;;;;;;12989291;22;20064;-56
2023/05/27 21:27:16;;;;;;;5.13;3.90;;;18.60;62.70;;;;;;13042530;22;20418;-57
2023/05/27 21:32:16;;;;;;;8.15;4.03;;;18.60;62.60;;;;;;13042410;22;20078;-56
2023/05/27 21:37:17;;;;;;;5.50;3.72;;;18.60;62.60;;;;;;13014687;22;20074;-59
2023/05/27 21:42:20;;;;;;;5.70;3.60;;;18.60;62.60;;;;;;13041743;22;20086;-56
2023/05/27 21:47:21;;;;;;;7.65;4.40;;;18.60;62.60;;;;;;13014607;22;20284;-56
2023/05/27 21:52:25;;;;;;;6.40;4.10;;;18.60;62.60;;;;;;13041446;22;20530;-56
2023/05/27 21:57:25;;;;;;;6.53;3.40;;;18.50;62.60;;;;;;12989408;22;20044;-56
2023/05/27 22:02:26;;;;;;;5.75;4.00;;;18.50;62.60;;;;;;13041632;22;20351;-57
2023/05/27 22:07:27;;;;;;;6.38;3.33;;;18.60;62.70;;;;;;12988420;22;20030;-57
2023/05/27 22:12:27;;;;;;;5.22;3.22;;;18.50;62.60;;;;;;13039704;22;19999;-55
2023/05/27 22:17:28;;;;;;;6.88;3.65;;;18.50;62.70;;;;;;13013069;22;20006;-57
2023/05/27 22:22:29;;;;;;;5.60;3.40;;;18.60;62.70;;;;;;13012551;22;20007;-57
2023/05/27 22:27:30;;;;;;;7.70;4.43;;;18.50;62.70;;;;;;13013905;22;19992;-57
2023/05/27 22:32:31;;;;;;;4.85;3.65;;;18.50;62.60;;;;;;13040934;22;20002;-57
2023/05/27 22:37:32;;;;;;;6.03;3.45;;;18.50;62.60;;;;;;13013310;22;19996;-57
2023/05/27 22:42:33;;;;;;;7.90;4.20;;;18.50;62.70;;;;;;13012922;22;20090;-57
2023/05/27 22:47:35;;;;;;;4.43;3.40;;;18.50;62.60;;;;;;12987633;22;20497;-56
2023/05/27 22:52:36;;;;;;;6.72;3.80;;;18.50;62.60;;;;;;13013211;22;19999;-56
2023/05/27 22:57:37;;;;;;;8.48;4.45;;;18.50;62.60;;;;;;13013024;22;20022;-57
2023/05/27 23:02:37;;;;;;;5.80;3.60;;;18.50;62.50;;;;;;12987506;22;20003;-56
2023/05/27 23:07:38;;;;;;;5.10;3.78;;;18.50;62.50;;;;;;13040342;22;20002;-56
2023/05/27 23:12:39;;;;;;;8.35;3.65;;;18.50;62.40;;;;;;13013408;22;20083;-57
2023/05/27 23:17:40;;;;;;;6.18;3.58;;;18.50;62.40;;;;;;13040018;22;20049;-55
2023/05/27 23:22:41;;;;;;;6.13;3.50;;;18.50;62.40;;;;;;13040513;22;20004;-58
2023/05/27 23:27:41;;;;;;;5.10;3.50;;;18.40;62.30;;;;;;13040141;22;19992;-57
2023/05/27 23:32:42;;;;;;;7.30;4.68;;;18.50;62.30;;;;;;13012399;22;20789;-55
2023/05/27 23:37:43;;;;;;;4.63;3.50;;;18.40;62.30;;;;;;13017187;22;20357;-57
2023/05/27 23:42:45;;;;;;;5.45;3.95;;;18.50;62.30;;;;;;13044198;22;20015;-57
2023/05/27 23:47:46;;;;;;;5.65;3.60;;;18.40;62.30;;;;;;13044441;22;19991;-56
2023/05/27 23:52:48;;;;;;;6.65;4.40;;;18.40;62.30;;;;;;13044334;22;20049;-56
2023/05/27 23:57:48;;;;;;;6.25;3.95;;;18.40;62.30;;;;;;13017394;22;20009;-55
